Time;durP1;ratioP1;P1;durP2;ratioP2;P2;SDS_P1;SDS_P2;PMS_P1;PMS_P2;Temp;Humidity;BMP_temperature;BMP_pressure;BME280_temperature;BME280_humidity;BME280_pressure;Samples;Min_cycle;Max_cycle;Signal;HPM_P1;HPM_P2
2023/02/23 00:02:06;;;;;;;43.53;26.30;;;15.10;85.90;;;;;;4158559;28;20049;-72
2023/02/23 00:04:47;;;;;;;44.40;26.20;;;15.10;85.80;;;;;;4160613;28;20060;-73
2023/02/23 00:07:28;;;;;;;43.33;26.20;;;15.10;86.10;;;;;;4178024;28;20110;-73
2023/02/23 00:10:11;;;;;;;40.83;25.52;;;15.20;86.70;;;;;;4151653;28;20049;-73
2023/02/23 00:12:54;;;;;;;43.30;26.55;;;15.20;86.80;;;;;;4161617;28;20182;-73
2023/02/23 00:15:36;;;;;;;38.47;24.95;;;15.30;86.60;;;;;;4161530;28;20056;-72
2023/02/23 00:18:17;;;;;;;41.63;26.23;;;15.40;86.30;;;;;;4161489;28;20463;-73
2023/02/23 00:20:58;;;;;;;39.67;25.67;;;15.50;86.00;;;;;;4166675;28;20060;-74
2023/02/23 00:23:39;;;;;;;42.90;24.67;;;15.50;85.60;;;;;;4161455;28;20057;-74
2023/02/23 00:26:22;;;;;;;41.95;26.27;;;15.60;85.60;;;;;;4149167;28;20108;-73
2023/02/23 00:29:08;;;;;;;40.78;24.80;;;15.60;85.40;;;;;;4160975;28;20696;-72
2023/02/23 00:31:50;;;;;;;40.88;26.38;;;15.60;85.30;;;;;;4161372;28;20408;-72
2023/02/23 00:34:31;;;;;;;40.55;25.17;;;15.60;85.20;;;;;;4149423;28;20248;-74
2023/02/23 00:37:13;;;;;;;37.10;24.02;;;15.60;85.10;;;;;;4162242;28;20052;-72
2023/02/23 00:39:55;;;;;;;39.60;26.00;;;15.60;85.10;;;;;;4161468;28;20052;-66
2023/02/23 00:42:37;;;;;;;38.90;25.40;;;15.60;85.10;;;;;;4160955;28;20052;-66
2023/02/23 00:45:19;;;;;;;39.75;24.23;;;15.70;86.00;;;;;;4148781;28;20056;-65
2023/02/23 00:48:02;;;;;;;40.42;24.65;;;15.70;84.80;;;;;;4161016;28;20040;-66
2023/02/23 00:50:43;;;;;;;41.50;25.40;;;15.80;84.50;;;;;;4137741;28;20463;-66
2023/02/23 00:53:26;;;;;;;35.92;24.38;;;15.80;84.20;;;;;;4170355;28;20052;-67
2023/02/23 00:56:08;;;;;;;36.10;23.52;;;15.80;84.00;;;;;;4176415;28;20059;-66
2023/02/23 00:58:49;;;;;;;39.28;25.90;;;15.80;83.70;;;;;;4177188;28;20565;-66
2023/02/23 01:01:32;;;;;;;40.88;25.67;;;15.80;83.90;;;;;;4177168;28;20048;-67
2023/02/23 01:04:13;;;;;;;42.67;25.92;;;15.80;84.70;;;;;;4177319;28;20052;-67
2023/02/23 01:06:54;;;;;;;49.90;27.55;;;15.80;83.80;;;;;;4170891;28;20086;-67
2023/02/23 01:09:35;;;;;;;50.08;29.15;;;15.90;83.80;;;;;;4163778;28;20044;-66
2023/02/23 01:12:17;;;;;;;48.55;28.38;;;15.90;83.90;;;;;;4164593;28;20875;-66
2023/02/23 01:14:58;;;;;;;51.20;29.55;;;15.90;83.70;;;;;;4177014;28;20068;-66
2023/02/23 01:17:41;;;;;;;48.35;28.90;;;15.90;83.70;;;;;;4163605;28;20071;-65
2023/02/23 01:20:24;;;;;;;48.85;29.73;;;15.90;83.80;;;;;;4177151;28;20455;-67
2023/02/23 01:23:07;;;;;;;50.55;30.50;;;15.90;83.70;;;;;;4159131;28;20048;-67
2023/02/23 01:25:48;;;;;;;;;;;15.90;83.60;;;;;;4161840;28;20061;-67
2023/02/23 01:28:29;;;;;;;52.22;30.08;;;16.00;83.60;;;;;;4160383;28;20027;-65
2023/02/23 01:31:10;;;;;;;50.75;29.55;;;16.00;83.70;;;;;;4148022;28;20060;-65
2023/02/23 01:33:54;;;;;;;57.22;32.50;;;16.00;83.50;;;;;;4147751;28;20614;-67
2023/02/23 01:36:37;;;;;;;55.83;31.88;;;16.00;83.50;;;;;;4136261;28;20420;-66
2023/02/23 01:39:20;;;;;;;53.80;32.42;;;16.00;83.60;;;;;;4147932;28;20052;-66
2023/02/23 01:42:01;;;;;;;54.28;30.77;;;16.00;83.50;;;;;;4174146;28;20056;-66
2023/02/23 01:45:17;;;;;;;56.58;31.50;;;16.00;83.20;;;;;;4174234;28;20087;-66
2023/02/23 01:48:02;;;;;;;53.58;30.35;;;16.10;82.70;;;;;;4164461;28;20466;-66
2023/02/23 01:50:51;;;;;;;50.17;28.80;;;16.10;83.00;;;;;;4176683;28;20063;-66
2023/02/23 01:53:36;;;;;;;53.33;31.02;;;16.10;82.70;;;;;;4176680;28;20056;-66
2023/02/23 01:56:23;;;;;;;54.83;30.92;;;16.10;82.60;;;;;;4171621;28;20061;-65
2023/02/23 01:59:11;;;;;;;56.15;32.22;;;16.20;82.60;;;;;;4160659;28;20051;-66
2023/02/23 02:01:52;;;;;;;52.45;29.50;;;16.20;83.60;;;;;;4131467;28;20057;-65
2023/02/23 02:04:42;;;;;;;57.42;30.50;;;16.20;82.60;;;;;;4147901;28;20048;-65
2023/02/23 02:07:28;;;;;;;53.03;29.15;;;16.30;82.50;;;;;;4159536;28;20057;-66
2023/02/23 02:13:13;;;;;;;56.25;31.27;;;16.30;82.60;;;;;;4143379;28;20056;-70
2023/02/23 02:16:20;;;;;;;46.05;28.60;;;16.30;82.20;;;;;;4176047;28;20171;-71
2023/02/23 02:19:35;;;;;;;55.10;30.58;;;16.20;82.00;;;;;;4152229;28;20056;-71
2023/02/23 02:22:44;;;;;;;52.03;30.88;;;16.20;82.90;;;;;;4175607;28;20600;-73
2023/02/23 02:25:44;;;;;;;47.75;29.80;;;16.10;82.20;;;;;;4175570;28;20118;-67
2023/02/23 02:28:44;;;;;;;49.33;29.38;;;16.10;82.50;;;;;;4165764;28;20052;-66
2023/02/23 02:32:10;;;;;;;50.38;30.95;;;16.00;82.70;;;;;;4158993;28;20531;-66
2023/02/23 02:35:22;;;;;;;57.50;30.75;;;16.00;83.00;;;;;;4139134;28;20059;-67
2023/02/23 02:38:18;;;;;;;52.75;31.95;;;16.00;83.70;;;;;;4158491;28;20056;-67
2023/02/23 02:41:05;;;;;;;48.22;29.90;;;16.00;83.60;;;;;;4146820;28;20103;-66
2023/02/23 02:43:53;;;;;;;54.80;32.38;;;16.10;83.40;;;;;;4154311;28;20060;-67
2023/02/23 02:46:39;;;;;;;49.53;27.77;;;16.20;84.00;;;;;;4175686;28;20408;-66
2023/02/23 02:49:29;;;;;;;55.35;30.67;;;16.20;82.80;;;;;;4175438;28;20531;-67
2023/02/23 02:52:17;;;;;;;49.38;29.85;;;16.30;82.40;;;;;;4175194;28;20060;-67
2023/02/23 02:55:10;;;;;;;52.00;30.30;;;16.30;82.00;;;;;;4158864;28;20048;-67
2023/02/23 02:57:55;;;;;;;51.58;32.03;;;16.30;81.80;;;;;;4147119;28;20417;-67
2023/02/23 04:19:38;;;;;;;55.03;31.38;;;16.50;81.20;;;;;;4174586;28;20060;-66
2023/02/23 04:22:19;;;;;;;51.08;31.10;;;16.50;81.10;;;;;;4173210;28;20187;-66
2023/02/23 04:25:00;;;;;;;48.50;30.00;;;16.40;81.10;;;;;;4161100;28;20064;-66
2023/02/23 04:27:41;;;;;;;55.28;31.85;;;16.40;81.30;;;;;;4158385;28;20412;-66
2023/02/23 04:30:24;;;;;;;51.78;30.88;;;16.40;81.50;;;;;;4159375;28;20051;-71
2023/02/23 04:33:05;;;;;;;53.58;32.38;;;16.30;81.60;;;;;;4145816;28;20180;-73
2023/02/23 04:35:46;;;;;;;53.83;31.23;;;16.30;81.80;;;;;;4158596;28;20581;-66
2023/02/23 04:38:27;;;;;;;51.10;30.88;;;16.20;81.90;;;;;;4156215;28;20068;-67
2023/02/23 04:41:08;;;;;;;51.20;31.00;;;16.20;82.00;;;;;;4158025;28;20043;-66
2023/02/23 04:43:49;;;;;;;53.65;30.58;;;16.20;82.10;;;;;;4145752;28;20071;-66
2023/02/23 04:46:31;;;;;;;54.20;31.48;;;16.20;82.30;;;;;;4158275;28;20168;-66
2023/02/23 04:49:12;;;;;;;52.33;30.75;;;16.30;82.30;;;;;;4157895;28;20051;-66
2023/02/23 04:51:53;;;;;;;48.15;30.27;;;16.30;82.00;;;;;;4152621;28;20072;-67
2023/02/23 04:54:33;;;;;;;53.97;32.07;;;16.40;81.80;;;;;;4160245;28;20060;-66
2023/02/23 04:57:15;;;;;;;54.10;32.65;;;16.40;81.60;;;;;;4157150;28;20074;-67
2023/02/23 04:59:56;;;;;;;56.22;32.80;;;16.50;81.50;;;;;;4177596;28;20048;-66
2023/02/23 05:02:38;;;;;;;48.78;30.17;;;16.50;81.20;;;;;;4176765;28;20068;-65
2023/02/23 05:05:20;;;;;;;51.65;30.95;;;16.50;81.20;;;;;;4165921;28;20177;-66
2023/02/23 05:08:01;;;;;;;;;;;16.50;81.10;;;;;;4161184;28;20534;-67
2023/02/23 05:10:42;;;;;;;52.97;31.98;;;16.50;81.10;;;;;;4161181;28;19928;-72
2023/02/23 05:13:23;;;;;;;54.88;30.77;;;16.50;81.10;;;;;;4160706;28;20069;-72
2023/02/23 05:16:04;;;;;;;51.00;30.55;;;16.40;81.10;;;;;;4160495;28;20056;-74
2023/02/23 05:18:47;;;;;;;58.13;31.30;;;16.40;81.10;;;;;;4167168;28;20067;-74
2023/02/23 05:21:28;;;;;;;52.15;32.17;;;16.40;81.30;;;;;;4176563;28;20122;-73
2023/02/23 05:24:09;;;;;;;47.75;29.85;;;16.30;81.50;;;;;;4164634;28;20056;-72
2023/02/23 05:26:50;;;;;;;49.00;31.20;;;16.30;81.90;;;;;;4177055;28;20044;-66
2023/02/23 05:29:31;;;;;;;54.55;31.85;;;16.30;82.10;;;;;;4148116;28;20103;-66
2023/02/23 05:32:12;;;;;;;49.30;29.77;;;16.40;81.80;;;;;;4148389;28;20404;-66
2023/02/23 05:34:55;;;;;;;49.97;30.35;;;16.40;81.50;;;;;;4160453;28;20049;-67
2023/02/23 05:37:36;;;;;;;50.67;31.27;;;16.40;81.20;;;;;;4171455;28;20122;-66
2023/02/23 05:40:18;;;;;;;53.38;32.38;;;16.50;81.20;;;;;;4153056;28;20064;-66
2023/02/23 05:42:59;;;;;;;48.38;29.60;;;16.60;81.20;;;;;;4176732;28;20075;-67
2023/02/23 05:45:41;;;;;;;52.88;32.28;;;16.60;80.90;;;;;;4175995;28;20056;-65
2023/02/23 05:48:22;;;;;;;50.92;30.58;;;16.60;80.60;;;;;;4176369;28;20047;-66
2023/02/23 05:51:06;;;;;;;;;;;16.60;80.30;;;;;;4155913;28;20051;-65
2023/02/23 05:53:47;;;;;;;53.13;30.23;;;16.60;80.50;;;;;;4147747;28;19928;-65
2023/02/23 05:56:28;;;;;;;51.95;29.05;;;16.50;80.80;;;;;;4162584;28;20498;-65
2023/02/23 05:59:09;;;;;;;53.20;30.40;;;16.50;80.80;;;;;;4175925;28;20194;-65
2023/02/23 06:01:50;;;;;;;46.90;30.30;;;16.40;81.10;;;;;;4176304;28;20052;-66
2023/02/23 06:04:31;;;;;;;47.45;27.42;;;16.40;81.10;;;;;;4175007;28;20052;-66
2023/02/23 06:07:14;;;;;;;46.13;26.60;;;16.30;81.30;;;;;;4176325;28;20047;-65
2023/02/23 06:09:55;;;;;;;47.05;27.55;;;16.40;81.60;;;;;;4176357;28;20056;-66
2023/02/23 06:12:36;;;;;;;46.97;27.80;;;16.40;81.50;;;;;;4175850;28;20056;-66
2023/02/23 06:15:17;;;;;;;46.95;27.20;;;16.40;81.20;;;;;;4161682;28;20056;-66
2023/02/23 06:17:58;;;;;;;45.33;27.27;;;16.50;81.20;;;;;;4176411;28;20064;-66
2023/02/23 06:20:39;;;;;;;48.05;27.33;;;16.60;80.90;;;;;;4176305;28;20055;-66
2023/02/23 06:23:22;;;;;;;44.67;26.58;;;16.60;80.70;;;;;;4163700;28;20052;-67
2023/02/23 06:26:03;;;;;;;44.72;25.52;;;16.60;80.40;;;;;;4176044;28;20056;-65
2023/02/23 06:28:44;;;;;;;40.83;24.90;;;16.60;80.30;;;;;;4174743;28;20101;-67
2023/02/23 06:31:24;;;;;;;39.38;23.90;;;16.60;80.70;;;;;;4176318;28;20514;-72
2023/02/23 06:34:06;;;;;;;37.58;21.80;;;16.60;80.90;;;;;;4176122;28;20052;-74
2023/02/23 06:36:48;;;;;;;35.17;21.95;;;16.60;80.90;;;;;;4161726;28;20067;-72
2023/02/23 06:39:31;;;;;;;28.88;19.63;;;16.50;80.90;;;;;;4169773;28;20376;-72
2023/02/23 06:42:12;;;;;;;32.50;21.33;;;16.50;81.10;;;;;;4174909;28;20044;-71
2023/02/23 06:44:53;;;;;;;33.35;20.58;;;16.40;81.30;;;;;;4174630;28;20064;-70
2023/02/23 06:47:33;;;;;;;28.13;18.33;;;16.40;81.70;;;;;;4170102;28;20512;-68
2023/02/23 06:50:15;;;;;;;29.77;18.13;;;16.40;81.80;;;;;;4159652;28;20098;-71
2023/02/23 06:52:57;;;;;;;25.60;16.95;;;16.50;81.50;;;;;;4158560;28;20051;-69
2023/02/23 06:55:40;;;;;;;25.23;17.38;;;16.50;81.10;;;;;;4167284;28;20048;-69
2023/02/23 06:58:21;;;;;;;24.80;16.90;;;16.50;80.80;;;;;;4144129;28;20409;-72
2023/02/23 07:01:02;;;;;;;24.88;16.67;;;16.50;80.80;;;;;;4156037;28;20056;-70
2023/02/23 07:03:43;;;;;;;26.27;17.42;;;16.50;80.90;;;;;;4175277;28;20121;-67
2023/02/23 07:06:24;;;;;;;26.55;17.13;;;16.40;82.00;;;;;;4164668;28;20052;-69
2023/02/23 07:09:05;;;;;;;25.38;16.13;;;16.40;81.10;;;;;;4159790;28;20055;-73
2023/02/23 07:11:48;;;;;;;;;;;16.30;81.30;;;;;;4152605;28;20061;-72
2023/02/23 07:14:29;;;;;;;25.88;16.02;;;16.30;81.70;;;;;;4164078;28;20276;-72
2023/02/23 07:17:09;;;;;;;28.20;15.60;;;16.20;82.00;;;;;;4174941;28;20621;-73
2023/02/23 07:19:52;;;;;;;22.85;16.33;;;16.20;82.00;;;;;;4175538;28;20044;-67
2023/02/23 07:22:33;;;;;;;23.00;14.57;;;16.10;82.10;;;;;;4155418;28;20507;-68
2023/02/23 07:25:14;;;;;;;24.27;15.98;;;16.10;82.30;;;;;;4173458;28;20183;-67
2023/02/23 07:27:57;;;;;;;21.38;15.07;;;16.00;82.50;;;;;;4175064;28;20060;-67
2023/02/23 07:30:38;;;;;;;24.13;16.17;;;16.00;83.00;;;;;;4158381;28;20068;-67
2023/02/23 07:33:20;;;;;;;22.55;15.95;;;16.10;82.90;;;;;;4159122;28;20053;-68
2023/02/23 07:36:01;;;;;;;22.70;15.55;;;16.20;82.60;;;;;;4160539;28;20575;-68
2023/02/23 07:38:42;;;;;;;24.17;16.23;;;16.20;82.20;;;;;;4174925;28;20048;-68
2023/02/23 07:41:24;;;;;;;24.02;14.85;;;16.20;81.80;;;;;;4148822;28;20389;-68
2023/02/23 07:44:06;;;;;;;;;;;16.20;81.80;;;;;;4174333;28;20118;-67
2023/02/23 07:46:48;;;;;;;21.70;14.25;;;16.20;81.90;;;;;;4158483;28;20027;-68
2023/02/23 07:49:29;;;;;;;19.70;14.50;;;16.20;82.10;;;;;;4165188;28;20053;-67
2023/02/23 07:52:10;;;;;;;18.80;14.27;;;16.20;82.00;;;;;;4174744;28;20064;-68
2023/02/23 07:54:51;;;;;;;20.80;14.27;;;16.10;82.10;;;;;;4174796;28;20483;-66
2023/02/23 07:57:33;;;;;;;20.65;14.98;;;16.10;82.20;;;;;;4168711;28;20044;-64
2023/02/23 08:00:15;;;;;;;;;;;16.00;82.30;;;;;;4172440;28;20137;-64
2023/02/23 08:02:56;;;;;;;22.80;15.80;;;16.00;82.60;;;;;;4159627;28;19931;-63
2023/02/23 08:05:38;;;;;;;18.83;14.30;;;15.90;83.00;;;;;;4171763;28;20544;-63
2023/02/23 08:08:20;;;;;;;20.17;14.15;;;15.90;83.00;;;;;;4172268;28;20190;-64
2023/02/23 08:11:03;;;;;;;18.85;14.05;;;15.80;83.00;;;;;;4159012;28;20079;-64
2023/02/23 08:13:44;;;;;;;20.95;15.07;;;15.80;83.10;;;;;;4171589;28;21097;-64
2023/02/23 08:16:27;;;;;;;20.20;14.55;;;15.80;83.40;;;;;;4172058;28;20060;-64
2023/02/23 08:19:09;;;;;;;19.35;13.88;;;15.90;82.80;;;;;;4160048;28;20051;-64
2023/02/23 08:21:50;;;;;;;22.40;14.90;;;16.00;82.70;;;;;;4172133;28;20182;-64
2023/02/23 08:24:32;;;;;;;18.73;13.68;;;16.00;82.60;;;;;;4172160;28;21075;-64
2023/02/23 08:27:13;;;;;;;19.55;13.27;;;16.00;82.60;;;;;;4173572;28;20396;-68
2023/02/23 08:29:56;;;;;;;21.47;13.93;;;16.10;82.70;;;;;;4174288;28;20052;-68
2023/02/23 08:32:38;;;;;;;22.27;14.80;;;16.20;82.20;;;;;;4174196;28;20511;-68
2023/02/23 08:35:20;;;;;;;20.90;15.13;;;16.20;81.70;;;;;;4164149;28;20055;-68
2023/02/23 08:38:01;;;;;;;17.88;13.00;;;16.20;80.80;;;;;;4161072;28;20134;-69
2023/02/23 08:40:42;;;;;;;21.75;14.35;;;16.20;81.50;;;;;;4174339;28;20126;-67
2023/02/23 08:43:23;;;;;;;20.27;14.32;;;16.20;81.30;;;;;;4173854;28;20052;-68
2023/02/23 08:46:05;;;;;;;20.70;14.90;;;16.20;81.60;;;;;;4173304;28;20103;-67
2023/02/23 08:48:47;;;;;;;;;;;16.20;81.70;;;;;;4174749;28;20044;-67
2023/02/23 08:51:28;;;;;;;23.27;15.25;;;16.20;81.70;;;;;;4174850;28;19932;-69
2023/02/23 08:54:13;;;;;;;22.92;15.80;;;16.20;81.70;;;;;;4175137;28;20060;-69
2023/02/23 08:56:56;;;;;;;20.00;14.00;;;16.20;81.60;;;;;;4175005;28;20048;-69
2023/02/23 08:59:38;;;;;;;23.60;15.18;;;16.20;81.50;;;;;;4174684;28;20060;-68
2023/02/23 09:02:19;;;;;;;;;;;16.20;81.60;;;;;;4175361;28;20080;-67
2023/02/23 09:05:02;;;;;;;29.98;16.30;;;16.10;81.80;;;;;;4174486;28;19927;-68
2023/02/23 09:07:44;;;;;;;24.50;15.77;;;16.10;82.30;;;;;;4173454;28;20059;-68
2023/02/23 09:10:27;;;;;;;22.90;15.57;;;16.00;82.10;;;;;;4174990;28;20055;-70
2023/02/23 09:13:08;;;;;;;22.00;15.25;;;16.00;82.30;;;;;;4173947;28;20052;-68
2023/02/23 09:15:49;;;;;;;19.73;15.30;;;15.90;82.40;;;;;;4173908;28;20083;-68
2023/02/23 09:18:31;;;;;;;24.70;15.35;;;15.90;82.50;;;;;;4174417;28;20048;-69
2023/02/23 09:21:19;;;;;;;22.58;14.88;;;15.80;82.60;;;;;;4161822;28;20051;-69
2023/02/23 09:24:01;;;;;;;22.52;15.32;;;15.80;82.70;;;;;;4173643;28;20630;-68
2023/02/23 09:26:42;;;;;;;;;;;15.80;83.00;;;;;;4174051;28;20060;-69
2023/02/23 09:29:25;;;;;;;24.27;16.35;;;15.80;83.10;;;;;;4174541;28;19931;-69
2023/02/23 09:32:07;;;;;;;26.02;15.70;;;15.70;83.50;;;;;;4174465;28;20064;-69
2023/02/23 09:34:48;;;;;;;24.13;15.25;;;15.70;83.70;;;;;;4174052;28;20087;-70
2023/02/23 09:37:30;;;;;;;23.15;15.80;;;15.60;83.70;;;;;;4161434;28;20044;-70
2023/02/23 09:40:16;;;;;;;26.55;16.52;;;15.60;83.80;;;;;;4173452;28;20171;-69
2023/02/23 09:43:04;;;;;;;24.65;15.80;;;15.60;83.80;;;;;;4174254;28;20052;-69
2023/02/23 09:45:49;;;;;;;27.50;16.90;;;15.50;83.70;;;;;;4158009;28;20450;-69
2023/02/23 09:48:30;;;;;;;25.35;16.02;;;15.50;83.70;;;;;;4173408;28;20102;-69
2023/02/23 09:51:19;;;;;;;26.27;16.60;;;15.50;83.90;;;;;;4173407;28;20125;-69
2023/02/23 09:54:04;;;;;;;24.55;15.95;;;15.50;83.60;;;;;;4173198;28;20815;-64
2023/02/23 09:56:47;;;;;;;27.80;16.80;;;15.50;84.00;;;;;;4172036;28;20127;-64
2023/02/23 09:59:29;;;;;;;25.45;15.30;;;15.40;84.20;;;;;;4173910;28;20052;-65
2023/02/23 10:02:18;;;;;;;;;;;15.40;84.30;;;;;;4173082;28;20083;-65
2023/02/23 10:05:03;;;;;;;27.02;17.13;;;15.40;84.60;;;;;;4172894;28;20082;-65
2023/02/23 10:07:50;;;;;;;31.90;18.45;;;15.40;84.90;;;;;;4173404;28;20115;-64
2023/02/23 10:10:40;;;;;;;27.30;17.83;;;15.40;84.80;;;;;;4161109;28;20457;-64
2023/02/23 10:13:31;;;;;;;31.02;17.23;;;15.30;84.80;;;;;;4173006;28;20071;-64
2023/02/23 10:16:19;;;;;;;27.40;16.98;;;15.30;85.00;;;;;;4172439;28;20064;-64
2023/02/23 10:19:07;;;;;;;29.48;18.05;;;15.30;84.90;;;;;;4173575;28;20130;-64
2023/02/23 10:21:54;;;;;;;31.75;18.70;;;15.30;84.80;;;;;;4160133;28;20048;-64
2023/02/23 10:24:40;;;;;;;29.77;18.77;;;15.30;84.80;;;;;;4172044;28;20170;-64
2023/02/23 10:27:29;;;;;;;30.40;17.85;;;15.30;84.90;;;;;;4172968;28;20191;-64
2023/02/23 10:30:18;;;;;;;32.45;19.80;;;15.30;84.70;;;;;;4172911;28;20127;-64
2023/02/23 10:33:10;;;;;;;35.67;19.80;;;15.20;84.60;;;;;;4173534;28;20048;-64
2023/02/23 10:35:55;;;;;;;39.42;19.20;;;15.20;84.90;;;;;;4172490;28;20057;-64
2023/02/23 10:38:51;;;;;;;35.20;20.23;;;15.20;85.20;;;;;;4172913;28;20064;-65
2023/02/23 10:41:33;;;;;;;37.65;20.17;;;15.30;85.20;;;;;;4171990;28;20402;-64
2023/02/23 10:44:19;;;;;;;35.45;19.60;;;15.30;84.90;;;;;;4173050;28;20135;-64
2023/02/23 10:47:03;;;;;;;44.83;22.05;;;15.30;84.80;;;;;;4172681;28;20174;-64
2023/02/23 10:49:46;;;;;;;50.00;23.63;;;15.40;84.60;;;;;;4171712;28;20145;-64
2023/02/23 10:52:33;;;;;;;51.20;23.40;;;15.40;84.30;;;;;;4160074;28;20179;-64
2023/02/23 10:55:24;;;;;;;49.15;22.70;;;15.40;84.60;;;;;;4172756;28;20430;-63
2023/02/23 10:58:15;;;;;;;47.63;21.73;;;15.50;84.30;;;;;;4172854;28;20272;-64
2023/02/23 11:01:00;;;;;;;50.60;21.88;;;15.60;84.10;;;;;;4172307;28;20141;-63
2023/02/23 11:03:43;;;;;;;46.72;20.10;;;15.60;83.80;;;;;;4173049;28;20072;-65
2023/02/23 11:06:31;;;;;;;47.20;19.73;;;15.60;83.40;;;;;;4172823;28;20137;-65
2023/02/23 11:09:25;;;;;;;55.70;22.70;;;15.60;83.70;;;;;;4171574;28;20411;-64
2023/02/23 11:12:28;;;;;;;51.28;19.42;;;15.60;80.90;;;;;;4172562;28;20510;-63
2023/02/23 11:15:28;;;;;;;54.63;22.02;;;15.60;83.00;;;;;;4167310;28;20095;-70
2023/02/23 11:18:30;;;;;;;49.65;22.13;;;15.70;83.80;;;;;;4148041;28;20056;-72
2023/02/23 11:21:17;;;;;;;48.67;23.13;;;15.70;82.50;;;;;;4172409;28;20064;-69
2023/02/23 11:24:18;;;;;;;50.10;21.83;;;15.70;81.10;;;;;;4171762;28;20051;-70
2023/02/23 11:27:02;;;;;;;49.13;21.70;;;15.70;80.60;;;;;;4170028;28;20056;-70
2023/02/23 11:29:46;;;;;;;49.33;20.10;;;15.70;80.60;;;;;;4171369;28;20733;-69
2023/02/23 11:32:31;;;;;;;46.60;20.80;;;15.70;81.70;;;;;;4172065;28;20056;-70
2023/02/23 11:35:27;;;;;;;44.97;21.35;;;15.60;81.50;;;;;;4172033;28;20095;-65
2023/02/23 11:38:23;;;;;;;38.08;19.02;;;15.60;79.70;;;;;;4171631;28;20060;-64
2023/02/23 11:41:06;;;;;;;45.65;20.73;;;15.60;80.60;;;;;;4170852;28;20056;-66
2023/02/23 11:43:50;;;;;;;44.58;20.08;;;15.60;81.20;;;;;;4171372;28;20048;-64
2023/02/23 11:46:33;;;;;;;48.83;21.23;;;15.50;80.60;;;;;;4171675;28;20052;-65
2023/02/23 11:49:19;;;;;;;43.45;19.45;;;15.50;80.60;;;;;;4171950;28;20048;-62
2023/02/23 11:52:02;;;;;;;46.53;20.52;;;15.40;81.40;;;;;;4171861;28;20179;-62
2023/02/23 11:54:56;;;;;;;44.72;19.58;;;15.40;82.10;;;;;;4172463;28;20135;-64
2023/02/23 11:57:37;;;;;;;48.15;20.48;;;15.40;81.20;;;;;;4172112;28;20064;-65
2023/02/23 12:00:25;;;;;;;42.20;20.90;;;15.40;81.90;;;;;;4172003;28;20388;-64
2023/02/23 12:03:06;;;;;;;50.13;21.35;;;15.40;82.10;;;;;;4175354;28;20055;-64
2023/02/23 12:05:52;;;;;;;42.80;18.95;;;15.40;82.00;;;;;;4175866;28;20134;-64
2023/02/23 12:08:40;;;;;;;48.03;19.60;;;15.30;82.30;;;;;;4174325;28;20594;-64
2023/02/23 12:11:26;;;;;;;48.22;21.55;;;15.30;82.70;;;;;;4175504;28;20099;-64
2023/02/23 12:14:18;;;;;;;49.50;20.33;;;15.30;83.00;;;;;;4175540;28;20615;-63
2023/02/23 12:17:05;;;;;;;49.38;20.13;;;15.30;82.80;;;;;;4175547;28;20092;-64
2023/02/23 12:19:51;;;;;;;50.13;20.85;;;15.20;83.20;;;;;;4175438;28;20060;-63
2023/02/23 12:22:37;;;;;;;68.22;29.23;;;15.20;83.20;;;;;;4173297;28;20483;-63
2023/02/23 12:25:25;;;;;;;52.72;22.15;;;15.20;83.30;;;;;;4174852;28;20059;-64
2023/02/23 12:28:12;;;;;;;54.25;22.50;;;15.30;84.10;;;;;;4174804;28;20047;-64
2023/02/23 12:31:02;;;;;;;66.90;26.15;;;15.30;83.70;;;;;;4174144;28;20071;-64
2023/02/23 12:33:47;;;;;;;64.45;26.90;;;15.30;83.70;;;;;;4174808;28;20060;-64
2023/02/23 12:36:37;;;;;;;75.55;31.35;;;15.30;83.30;;;;;;4162357;28;20258;-64
2023/02/23 12:39:26;;;;;;;76.72;32.80;;;15.40;83.90;;;;;;4174157;28;20052;-64
2023/02/23 12:42:16;;;;;;;72.40;27.35;;;15.40;83.90;;;;;;4173509;28;20415;-63
2023/02/23 12:45:01;;;;;;;74.03;27.98;;;15.40;84.80;;;;;;4174320;28;20098;-64
2023/02/23 12:47:46;;;;;;;72.00;31.80;;;15.40;83.80;;;;;;4172087;28;20068;-64
2023/02/23 12:50:30;;;;;;;75.55;29.33;;;15.40;84.00;;;;;;4174487;28;20506;-64
2023/02/23 12:53:20;;;;;;;82.18;31.35;;;15.40;84.30;;;;;;4174846;28;20048;-64
2023/02/23 12:56:20;;;;;;;72.78;29.52;;;15.40;84.20;;;;;;4174026;28;20550;-64
2023/02/23 12:59:42;;;;;;;69.68;28.13;;;15.40;84.00;;;;;;4161194;28;20056;-72
2023/02/23 13:02:29;;;;;;;58.92;25.23;;;15.40;83.60;;;;;;4174905;28;20056;-72
2023/02/23 13:05:23;;;;;;;65.28;26.05;;;15.40;84.00;;;;;;4175084;28;20411;-71
2023/02/23 13:08:20;;;;;;;64.25;23.52;;;15.40;84.20;;;;;;4174642;28;20056;-71
2023/02/23 13:11:12;;;;;;;64.28;26.10;;;15.40;84.20;;;;;;4174543;28;20083;-70
2023/02/23 13:13:58;;;;;;;61.60;26.33;;;15.40;84.40;;;;;;4172868;28;20056;-68
2023/02/23 13:16:44;;;;;;;68.10;26.08;;;15.40;84.80;;;;;;4175036;28;20055;-69
2023/02/23 13:19:35;;;;;;;68.80;25.88;;;15.40;84.80;;;;;;4174347;28;20919;-65
2023/02/23 13:22:31;;;;;;;64.33;26.23;;;15.40;84.80;;;;;;4162239;28;20506;-65
2023/02/23 13:25:25;;;;;;;28.70;11.18;;;15.40;84.30;;;;;;4161626;28;20055;-68
2023/02/23 13:28:15;;;;;;;15.35;4.30;;;15.50;83.10;;;;;;4174624;28;20106;-65
2023/02/23 13:30:56;;;;;;;17.15;4.35;;;15.50;82.50;;;;;;4150253;28;20047;-71
2023/02/23 13:33:39;;;;;;;14.90;4.40;;;15.40;81.60;;;;;;4173870;28;20099;-70
2023/02/23 13:36:26;;;;;;;22.60;5.90;;;15.40;80.70;;;;;;4161495;28;20072;-71
2023/02/23 13:39:25;;;;;;;26.00;5.53;;;15.40;82.10;;;;;;4173937;28;20151;-69
2023/02/23 13:42:18;;;;;;;30.98;6.38;;;15.50;82.70;;;;;;4173916;28;20173;-68
2023/02/23 13:45:23;;;;;;;29.90;5.78;;;15.50;81.90;;;;;;4173119;28;20134;-68
2023/02/23 13:48:13;;;;;;;20.17;5.65;;;15.60;81.30;;;;;;4173805;28;20056;-71
2023/02/23 13:51:02;;;;;;;27.95;5.32;;;15.60;81.90;;;;;;4161363;28;20052;-70
2023/02/23 13:53:46;;;;;;;32.47;6.43;;;15.60;81.80;;;;;;4173944;28;20060;-70
2023/02/23 13:56:30;;;;;;;24.67;6.15;;;15.60;81.00;;;;;;4173833;28;20171;-70
2023/02/23 13:59:17;;;;;;;24.70;6.40;;;15.70;80.20;;;;;;4172852;28;20059;-69
2023/02/23 14:02:02;;;;;;;32.53;6.70;;;15.70;80.60;;;;;;4172264;28;20171;-69
2023/02/23 14:04:43;;;;;;;31.20;6.68;;;15.80;78.60;;;;;;4173485;28;20052;-70
2023/02/23 14:07:31;;;;;;;38.45;6.78;;;15.80;79.20;;;;;;4173403;28;20052;-70
2023/02/23 14:10:19;;;;;;;29.02;6.68;;;15.80;78.60;;;;;;4172586;28;20056;-71
2023/02/23 14:13:08;;;;;;;34.35;6.88;;;15.70;78.40;;;;;;4172586;28;20083;-71
2023/02/23 14:16:07;;;;;;;33.45;7.13;;;15.70;78.60;;;;;;4174112;28;20052;-73
2023/02/23 14:19:04;;;;;;;32.08;7.22;;;15.70;78.80;;;;;;4172984;28;20060;-72
2023/02/23 14:21:51;;;;;;;29.08;5.20;;;15.90;77.90;;;;;;4148784;28;20052;-73
2023/02/23 14:24:33;;;;;;;37.10;7.38;;;15.90;78.70;;;;;;4172620;28;20179;-71
2023/02/23 14:27:25;;;;;;;35.28;5.70;;;16.10;77.80;;;;;;4172936;28;20078;-71
2023/02/23 14:30:24;;;;;;;27.45;6.05;;;16.10;76.60;;;;;;4159636;28;20121;-71
2023/02/23 14:33:35;;;;;;;22.95;5.28;;;16.10;78.80;;;;;;4172666;28;20126;-71
2023/02/23 14:36:37;;;;;;;32.87;6.43;;;16.20;76.80;;;;;;4173096;28;20047;-71
2023/02/23 14:39:24;;;;;;;28.83;5.45;;;16.20;76.40;;;;;;4172263;28;20299;-70
2023/02/23 14:42:07;;;;;;;24.92;5.63;;;16.20;76.30;;;;;;4173233;28;20071;-70
2023/02/23 14:44:50;;;;;;;25.90;6.18;;;16.10;76.30;;;;;;4172664;28;20049;-71
2023/02/23 14:47:42;;;;;;;24.50;5.68;;;16.10;75.90;;;;;;4164766;28;20130;-72
2023/02/23 14:50:26;;;;;;;22.70;5.18;;;16.00;74.70;;;;;;4171482;28;20426;-70
2023/02/23 14:53:21;;;;;;;23.30;4.70;;;15.90;75.20;;;;;;4173111;28;20048;-65
2023/02/23 14:56:03;;;;;;;24.20;4.95;;;15.90;75.10;;;;;;4172315;28;20403;-64
2023/02/23 14:58:50;;;;;;;16.58;4.07;;;15.80;76.40;;;;;;4172679;28;20047;-64
2023/02/23 15:01:33;;;;;;;24.17;4.90;;;15.90;76.60;;;;;;4173114;28;20048;-64
2023/02/23 15:04:18;;;;;;;25.50;5.10;;;15.90;75.60;;;;;;4172737;28;20051;-64
2023/02/23 15:07:01;;;;;;;21.45;5.07;;;16.00;75.40;;;;;;4161005;28;20048;-62
2023/02/23 15:09:43;;;;;;;21.88;4.68;;;16.00;72.50;;;;;;4162131;28;20064;-62
2023/02/23 15:12:28;;;;;;;19.73;5.22;;;15.90;73.10;;;;;;4158760;28;20052;-62
2023/02/23 15:15:17;;;;;;;22.70;4.88;;;15.90;72.50;;;;;;4146154;28;20405;-62
2023/02/23 15:18:03;;;;;;;21.42;4.75;;;15.80;72.40;;;;;;4158668;28;20497;-65
2023/02/23 15:20:47;;;;;;;19.38;3.97;;;15.80;72.30;;;;;;4171728;28;20051;-62
2023/02/23 15:23:36;;;;;;;18.92;4.38;;;15.70;71.80;;;;;;4174838;28;20056;-63
2023/02/23 15:26:17;;;;;;;24.27;4.55;;;15.60;73.20;;;;;;4174770;28;20102;-63